createdAt,value
2023-04-09T00:00:41.439Z,19.92
2023-04-09T00:03:08.183Z,19.42
2023-04-09T00:05:38.785Z,19.08
2023-04-09T00:08:05.436Z,19.45
2023-04-09T00:10:31.968Z,18.65
2023-04-09T00:12:58.532Z,21.35
2023-04-09T00:15:31.334Z,20.77
2023-04-09T00:18:11.374Z,19.67
2023-04-09T00:20:37.982Z,20.13
2023-04-09T00:23:04.479Z,20.52
2023-04-09T00:25:31.104Z,19.88
2023-04-09T00:27:57.858Z,19.52
2023-04-09T00:30:24.545Z,18.73
2023-04-09T00:32:51.048Z,17.50
2023-04-09T00:35:17.689Z,17.42
2023-04-09T00:37:44.340Z,17.73
2023-04-09T00:40:16.502Z,18.17
2023-04-09T00:42:43.210Z,17.05
2023-04-09T00:45:09.875Z,19.02
2023-04-09T00:47:36.840Z,18.05
2023-04-09T00:50:03.705Z,17.80
2023-04-09T00:52:33.161Z,19.52
2023-04-09T00:55:00.989Z,18.42
2023-04-09T00:57:28.869Z,18.98
2023-04-09T00:59:55.528Z,20.00
2023-04-09T01:02:22.362Z,19.65
2023-04-09T01:04:49.602Z,19.17
2023-04-09T01:07:18.912Z,19.52
2023-04-09T01:09:52.562Z,18.95
2023-04-09T01:12:26.529Z,18.02
2023-04-09T01:14:56.895Z,18.55
2023-04-09T01:17:28.027Z,18.58
2023-04-09T01:20:04.015Z,18.65
2023-04-09T01:22:39.424Z,17.83
2023-04-09T01:25:12.293Z,19.52
2023-04-09T01:28:10.054Z,18.58
2023-04-09T01:30:36.828Z,18.45
2023-04-09T01:33:03.865Z,19.13
2023-04-09T01:35:31.179Z,19.17
2023-04-09T01:37:58.469Z,18.60
2023-04-09T01:40:42.204Z,18.33
2023-04-09T01:43:12.270Z,18.38
2023-04-09T01:45:39.278Z,18.08
2023-04-09T01:48:06.125Z,18.50
2023-04-09T01:50:33.171Z,17.75
2023-04-09T01:53:00.216Z,18.90
2023-04-09T01:55:27.114Z,18.63
2023-04-09T01:57:53.937Z,19.52
2023-04-09T02:00:20.865Z,18.70
2023-04-09T02:02:53.723Z,18.75
2023-04-09T02:05:23.256Z,18.35
2023-04-09T02:07:54.374Z,18.88
2023-04-09T02:10:22.767Z,17.50
2023-04-09T02:12:51.090Z,18.40
2023-04-09T02:15:19.135Z,18.45
2023-04-09T02:17:45.870Z,18.10
2023-04-09T02:20:16.896Z,19.08
2023-04-09T02:22:43.536Z,18.80
2023-04-09T02:25:10.129Z,19.50
2023-04-09T02:27:37.566Z,18.23
2023-04-09T02:30:04.583Z,19.00
2023-04-09T02:32:31.227Z,19.85
2023-04-09T02:34:57.845Z,19.02
2023-04-09T02:37:24.853Z,19.45
2023-04-09T02:39:51.279Z,19.65
2023-04-09T02:42:17.822Z,20.20
2023-04-09T02:44:44.579Z,19.95
2023-04-09T02:47:13.038Z,19.98
2023-04-09T02:49:39.850Z,20.02
2023-04-09T02:52:06.435Z,20.15
2023-04-09T02:54:33.018Z,19.65
2023-04-09T02:56:59.679Z,18.95
2023-04-09T02:59:26.303Z,18.98
2023-04-09T03:01:53.074Z,19.58
2023-04-09T03:04:19.831Z,19.15
2023-04-09T03:06:46.516Z,20.17
2023-04-09T03:09:13.073Z,19.55
2023-04-09T03:11:39.658Z,19.98
2023-04-09T03:14:06.271Z,19.35
2023-04-09T03:16:32.821Z,20.58
2023-04-09T03:18:59.370Z,21.23
2023-04-09T03:21:27.051Z,18.73
2023-04-09T03:23:53.549Z,21.58
2023-04-09T03:26:20.186Z,19.90
2023-04-09T03:28:48.456Z,19.17
2023-04-09T03:31:16.468Z,19.75
2023-04-09T03:33:44.009Z,20.95
2023-04-09T03:36:11.451Z,19.73
2023-04-09T03:38:58.321Z,19.27
2023-04-09T03:41:30.187Z,18.90
2023-04-09T03:43:58.837Z,19.45
2023-04-09T03:46:30.939Z,18.83
2023-04-09T03:48:59.474Z,19.13
2023-04-09T03:51:34.485Z,18.83
2023-04-09T03:54:01.135Z,19.60
2023-04-09T03:56:27.710Z,20.70
2023-04-09T03:58:54.878Z,20.38
2023-04-09T04:01:26.994Z,21.98
2023-04-09T04:03:58.185Z,20.13
2023-04-09T04:06:29.865Z,20.58
2023-04-09T04:09:08.397Z,20.65
2023-04-09T04:11:43.654Z,19.65
2023-04-09T04:14:11.089Z,22.13
2023-04-09T04:16:43.031Z,22.13
2023-04-09T04:19:12.164Z,23.17
2023-04-09T04:21:44.449Z,22.70
2023-04-09T04:24:11.019Z,22.02
2023-04-09T04:26:37.777Z,22.67
2023-04-09T04:29:04.611Z,21.63
2023-04-09T04:31:53.696Z,21.38
2023-04-09T04:34:23.190Z,21.80
2023-04-09T04:39:27.984Z,21.55
2023-04-09T04:42:00.125Z,22.98
2023-04-09T04:44:28.160Z,23.80
2023-04-09T04:47:03.527Z,23.80
2023-04-09T04:49:30.406Z,24.23
2023-04-09T04:51:57.261Z,23.75
2023-04-09T04:54:24.133Z,23.98
2023-04-09T04:56:54.701Z,24.00
2023-04-09T04:59:40.847Z,25.77
2023-04-09T05:02:09.996Z,25.20
2023-04-09T05:04:56.910Z,24.23
2023-04-09T05:07:31.599Z,24.92
2023-04-09T05:09:58.517Z,23.73
2023-04-09T05:12:26.532Z,25.77
2023-04-09T05:14:53.649Z,25.17
2023-04-09T05:17:20.322Z,26.05
2023-04-09T05:19:51.304Z,25.75
2023-04-09T05:22:19.831Z,26.30
2023-04-09T05:24:51.176Z,25.10
2023-04-09T05:27:19.454Z,25.80
2023-04-09T05:29:49.102Z,26.70
2023-04-09T05:32:16.048Z,26.35
2023-04-09T05:34:42.559Z,27.10
2023-04-09T05:37:09.195Z,27.15
2023-04-09T05:39:35.849Z,26.92
2023-04-09T05:42:03.643Z,26.33
2023-04-09T05:44:34.182Z,28.33
2023-04-09T05:47:11.468Z,26.77
2023-04-09T05:49:47.126Z,27.02
2023-04-09T05:52:16.886Z,26.58
2023-04-09T05:55:01.238Z,26.85
2023-04-09T05:57:42.233Z,29.45
2023-04-09T06:00:09.724Z,28.05
2023-04-09T06:02:47.358Z,27.52
2023-04-09T06:05:14.016Z,29.65
2023-04-09T06:07:40.867Z,27.52
2023-04-09T06:10:07.978Z,29.02
2023-04-09T06:12:35.289Z,30.27
2023-04-09T06:15:04.197Z,28.65
2023-04-09T06:17:30.819Z,29.70
2023-04-09T06:19:59.569Z,28.65
2023-04-09T06:22:26.254Z,29.48
2023-04-09T06:24:52.978Z,30.17
2023-04-09T06:27:22.047Z,28.52
2023-04-09T06:29:48.731Z,30.35
2023-04-09T06:32:15.423Z,31.67
2023-04-09T06:34:42.069Z,30.30
2023-04-09T06:37:08.524Z,30.13
2023-04-09T06:39:35.405Z,31.77
2023-04-09T06:42:01.918Z,29.92
2023-04-09T06:44:37.940Z,30.33
2023-04-09T06:47:04.432Z,29.08
2023-04-09T06:49:31.067Z,28.90
2023-04-09T06:51:57.975Z,28.90
2023-04-09T06:54:25.007Z,28.70
2023-04-09T06:56:51.898Z,30.05
2023-04-09T06:59:18.667Z,29.02
2023-04-09T07:01:45.648Z,28.02
2023-04-09T07:04:12.200Z,27.15
2023-04-09T07:06:40.506Z,29.73
2023-04-09T07:09:07.141Z,28.58
2023-04-09T07:11:33.711Z,28.75
2023-04-09T07:14:00.432Z,28.80
2023-04-09T07:16:27.115Z,29.63
2023-04-09T07:18:53.614Z,29.75
2023-04-09T07:21:20.481Z,27.88
2023-04-09T07:23:47.945Z,27.95
2023-04-09T07:26:14.516Z,27.38
2023-04-09T07:28:42.283Z,27.90
2023-04-09T07:31:09.595Z,29.30
2023-04-09T07:33:36.093Z,27.45
2023-04-09T07:36:02.730Z,28.60
2023-04-09T07:38:29.698Z,28.33
2023-04-09T07:40:56.359Z,28.00
2023-04-09T07:43:22.885Z,27.75
2023-04-09T07:45:51.350Z,28.17
2023-04-09T07:48:18.076Z,28.45
2023-04-09T07:50:48.449Z,28.95
2023-04-09T07:53:17.604Z,28.75
2023-04-09T07:55:44.295Z,29.95
2023-04-09T07:58:10.894Z,29.05
2023-04-09T08:00:37.472Z,28.63
2023-04-09T08:03:04.309Z,28.70
2023-04-09T08:05:31.000Z,28.70
2023-04-09T08:07:57.661Z,26.95
2023-04-09T08:10:24.204Z,28.70
2023-04-09T08:12:50.866Z,27.05
2023-04-09T08:15:17.436Z,27.05
2023-04-09T08:17:44.037Z,27.67
2023-04-09T08:20:11.012Z,26.63
2023-04-09T08:22:37.520Z,28.27
2023-04-09T08:25:04.090Z,26.83
2023-04-09T08:27:31.806Z,25.75
2023-04-09T08:30:00.798Z,27.88
2023-04-09T08:32:29.683Z,27.25
2023-04-09T08:34:56.645Z,28.27
2023-04-09T08:37:23.202Z,26.75
2023-04-09T08:39:49.676Z,26.85
2023-04-09T08:42:16.567Z,26.40
2023-04-09T08:44:43.675Z,27.38
2023-04-09T08:47:11.663Z,26.10
2023-04-09T08:49:41.894Z,27.08
2023-04-09T08:52:08.591Z,26.02
2023-04-09T08:54:35.651Z,26.50
2023-04-09T08:57:05.040Z,26.25
2023-04-09T08:59:31.618Z,26.88
2023-04-09T09:02:08.064Z,27.75
2023-04-09T09:04:44.094Z,26.52
2023-04-09T09:07:10.842Z,27.15
2023-04-09T09:09:50.134Z,25.98
2023-04-09T09:12:31.142Z,25.60
2023-04-09T09:14:57.737Z,25.92
2023-04-09T09:17:24.289Z,25.70
2023-04-09T09:19:51.156Z,25.25
2023-04-09T09:22:17.695Z,26.80
2023-04-09T09:24:50.285Z,27.73
2023-04-09T09:27:37.136Z,24.35
2023-04-09T09:30:05.645Z,26.52
2023-04-09T09:32:33.105Z,26.77
2023-04-09T09:35:03.929Z,26.42
2023-04-09T09:37:31.132Z,27.45
2023-04-09T09:39:58.228Z,27.23
2023-04-09T09:42:24.946Z,26.95
2023-04-09T09:44:53.419Z,26.73
2023-04-09T09:47:20.800Z,26.70
2023-04-09T09:49:50.795Z,25.83
2023-04-09T09:52:30.371Z,26.92
2023-04-09T09:55:01.337Z,26.00
2023-04-09T09:57:29.590Z,25.33
2023-04-09T10:00:00.711Z,25.02
2023-04-09T10:02:31.102Z,25.35
2023-04-09T10:05:00.760Z,25.65
2023-04-09T10:07:27.785Z,26.23
2023-04-09T10:09:55.839Z,24.25
2023-04-09T10:12:25.797Z,27.02
2023-04-09T10:14:58.977Z,27.58
2023-04-09T10:17:26.539Z,26.50
2023-04-09T10:20:07.765Z,26.27
2023-04-09T10:22:34.756Z,26.60
2023-04-09T10:25:01.280Z,26.83
2023-04-09T10:27:28.552Z,26.83
2023-04-09T10:29:55.295Z,27.10
2023-04-09T10:32:23.732Z,27.98
2023-04-09T10:34:50.736Z,27.42
2023-04-09T10:37:21.817Z,27.55
2023-04-09T10:39:49.937Z,29.00
2023-04-09T10:42:22.319Z,30.83
2023-04-09T10:45:04.228Z,30.80
2023-04-09T10:47:35.068Z,30.80
2023-04-09T10:50:14.899Z,31.40
2023-04-09T10:52:42.546Z,30.92
2023-04-09T10:55:09.158Z,33.03
2023-04-09T10:57:35.664Z,33.35
2023-04-09T11:00:02.323Z,33.47
2023-04-09T11:02:31.997Z,34.40
2023-04-09T11:05:17.607Z,33.47
2023-04-09T11:07:45.811Z,33.25
2023-04-09T11:10:12.421Z,33.97
2023-04-09T11:12:39.045Z,34.10
2023-04-09T11:15:05.698Z,35.03
2023-04-09T11:17:36.106Z,34.30
2023-04-09T11:20:05.789Z,33.20
2023-04-09T11:22:44.797Z,33.47
2023-04-09T11:25:20.384Z,34.22
2023-04-09T11:27:47.450Z,33.85
2023-04-09T11:30:14.143Z,37.03
2023-04-09T11:32:41.080Z,34.67
2023-04-09T11:35:14.380Z,36.10
2023-04-09T11:37:41.969Z,35.92
2023-04-09T11:40:15.032Z,35.63
2023-04-09T11:42:41.704Z,36.35
2023-04-09T11:45:08.926Z,35.28
2023-04-09T11:47:35.788Z,34.55
2023-04-09T11:50:02.508Z,34.40
2023-04-09T11:52:30.852Z,34.45
2023-04-09T11:55:01.508Z,35.00
2023-04-09T11:57:47.059Z,33.28
2023-04-09T12:00:14.604Z,32.28
2023-04-09T12:02:42.488Z,33.60
2023-04-09T12:05:10.270Z,32.05
2023-04-09T12:07:37.564Z,35.05
2023-04-09T12:10:06.177Z,33.65
2023-04-09T12:12:39.492Z,32.00
2023-04-09T12:15:27.177Z,32.88
2023-04-09T12:17:54.875Z,31.83
2023-04-09T12:20:31.838Z,31.38
2023-04-09T12:23:00.388Z,30.83
2023-04-09T12:25:27.508Z,29.73
2023-04-09T12:27:55.720Z,24.75
2023-04-09T12:30:22.566Z,22.30
2023-04-09T12:32:49.261Z,23.08
2023-04-09T12:35:15.929Z,26.00
2023-04-09T12:37:42.988Z,26.20
2023-04-09T12:40:09.737Z,24.70
2023-04-09T12:42:36.271Z,26.55
2023-04-09T12:45:02.808Z,26.85
2023-04-09T12:47:29.506Z,26.17
2023-04-09T12:49:56.239Z,27.23
2023-04-09T12:52:24.348Z,26.63
2023-04-09T12:54:52.044Z,26.98
2023-04-09T12:57:18.683Z,29.05
2023-04-09T12:59:45.174Z,26.67
2023-04-09T13:02:11.964Z,27.17
2023-04-09T13:04:38.917Z,30.60
2023-04-09T13:07:05.636Z,31.02
2023-04-09T13:09:32.261Z,28.83
2023-04-09T13:11:58.846Z,29.85
2023-04-09T13:14:25.448Z,30.92
2023-04-09T13:16:52.809Z,31.02
2023-04-09T13:19:19.606Z,31.50
2023-04-09T13:21:46.247Z,30.33
2023-04-09T13:24:12.882Z,30.58
2023-04-09T13:26:39.438Z,29.45
2023-04-09T13:29:06.507Z,30.67
2023-04-09T13:31:33.117Z,29.15
2023-04-09T13:33:59.564Z,30.15
2023-04-09T13:36:27.732Z,28.38
2023-04-09T13:38:54.620Z,28.38
2023-04-09T13:41:27.658Z,29.42
2023-04-09T13:43:56.461Z,28.90
2023-04-09T13:46:22.955Z,27.52
2023-04-09T13:48:57.008Z,28.13
2023-04-09T13:51:51.002Z,27.92
2023-04-09T13:54:17.737Z,29.55
2023-04-09T13:56:44.595Z,28.80
2023-04-09T13:59:11.529Z,29.13
2023-04-09T14:01:38.279Z,30.05
2023-04-09T14:04:04.999Z,30.48
2023-04-09T14:06:31.769Z,29.08
2023-04-09T14:09:05.872Z,30.40
2023-04-09T14:11:32.600Z,29.55
2023-04-09T14:13:59.328Z,30.00
2023-04-09T14:16:25.938Z,30.15
2023-04-09T14:18:52.903Z,30.15
2023-04-09T14:21:19.800Z,31.23
2023-04-09T14:23:46.317Z,31.45
2023-04-09T14:26:13.144Z,33.15
2023-04-09T14:28:39.742Z,33.30
2023-04-09T14:31:06.489Z,35.03
2023-04-09T14:33:32.954Z,34.97
2023-04-09T14:35:59.691Z,34.15
2023-04-09T14:38:26.473Z,32.35
2023-04-09T14:40:53.154Z,33.58
2023-04-09T14:43:19.616Z,32.95
2023-04-09T14:45:46.514Z,31.98
2023-04-09T14:48:13.032Z,31.92
2023-04-09T14:50:39.774Z,32.50
2023-04-09T14:53:06.713Z,33.67
2023-04-09T14:55:33.284Z,34.95
2023-04-09T14:58:01.560Z,34.38
2023-04-09T15:00:28.152Z,35.80
2023-04-09T15:02:54.946Z,35.20
2023-04-09T15:05:21.945Z,33.42
2023-04-09T15:07:48.561Z,34.85
2023-04-09T15:10:15.504Z,33.17
2023-04-09T15:12:42.122Z,33.90
2023-04-09T15:15:09.199Z,36.50
2023-04-09T15:17:35.943Z,35.92
2023-04-09T15:20:02.618Z,36.70
2023-04-09T15:22:29.210Z,35.42
2023-04-09T15:24:56.219Z,35.38
2023-04-09T15:27:22.723Z,34.47
2023-04-09T15:29:49.294Z,35.58
2023-04-09T15:32:15.946Z,34.70
2023-04-09T15:34:42.530Z,34.38
2023-04-09T15:37:09.005Z,34.58
2023-04-09T15:39:35.767Z,34.72
2023-04-09T15:42:02.397Z,33.85
2023-04-09T15:44:29.018Z,33.85
2023-04-09T15:46:56.099Z,35.10
2023-04-09T15:49:23.355Z,34.63
2023-04-09T15:51:50.006Z,32.22
2023-04-09T15:54:16.652Z,32.92
2023-04-09T15:56:43.230Z,31.70
2023-04-09T15:59:09.928Z,32.35
2023-04-09T16:01:36.645Z,31.45
2023-04-09T16:04:11.027Z,32.63
2023-04-09T16:06:38.871Z,30.42
2023-04-09T16:09:05.371Z,28.92
2023-04-09T16:11:31.988Z,27.23
2023-04-09T16:13:59.229Z,25.70
2023-04-09T16:16:26.241Z,25.17
2023-04-09T16:18:53.107Z,25.05
2023-04-09T16:21:20.136Z,25.38
2023-04-09T16:23:46.701Z,25.05
2023-04-09T16:26:13.282Z,23.55
2023-04-09T16:28:39.838Z,25.08
2023-04-09T16:31:06.663Z,23.80
2023-04-09T16:33:33.143Z,23.55
2023-04-09T16:35:59.792Z,22.50
2023-04-09T16:38:27.594Z,22.70
2023-04-09T16:40:54.233Z,22.30
2023-04-09T16:43:20.844Z,23.92
2023-04-09T16:45:47.526Z,22.00
2023-04-09T16:48:14.233Z,21.33
2023-04-09T16:50:41.237Z,21.83
2023-04-09T16:53:07.866Z,20.17
2023-04-09T16:55:35.045Z,21.33
2023-04-09T16:58:01.750Z,20.85
2023-04-09T17:00:28.336Z,21.52
2023-04-09T17:02:56.528Z,20.00
2023-04-09T17:05:23.480Z,21.02
2023-04-09T17:07:49.934Z,18.85
2023-04-09T17:10:16.537Z,19.67
2023-04-09T17:12:43.034Z,19.58
2023-04-09T17:15:09.956Z,18.27
2023-04-09T17:17:37.414Z,18.42
2023-04-09T17:20:04.663Z,18.50
2023-04-09T17:22:31.357Z,18.23
2023-04-09T17:24:58.050Z,18.10
2023-04-09T17:27:24.586Z,19.25
2023-04-09T17:29:51.783Z,19.90
2023-04-09T17:32:18.756Z,18.83
2023-04-09T17:34:49.479Z,18.98
2023-04-09T17:37:16.254Z,19.30
2023-04-09T17:39:42.699Z,19.08
2023-04-09T17:42:11.961Z,18.73
2023-04-09T17:44:38.751Z,18.73
2023-04-09T17:47:07.301Z,18.75
2023-04-09T17:49:34.039Z,18.80
2023-04-09T17:52:00.553Z,19.75
2023-04-09T17:54:31.718Z,18.73
2023-04-09T17:56:58.285Z,19.05
2023-04-09T17:59:25.833Z,19.60
2023-04-09T18:01:55.043Z,20.45
2023-04-09T18:04:23.565Z,20.15
2023-04-09T18:06:50.586Z,20.05
2023-04-09T18:09:17.237Z,19.77
2023-04-09T18:11:44.027Z,20.15
2023-04-09T18:14:10.808Z,19.27
2023-04-09T18:16:41.388Z,19.83
2023-04-09T18:19:07.981Z,18.77
2023-04-09T18:21:37.734Z,19.40
2023-04-09T18:24:04.689Z,19.38
2023-04-09T18:26:33.413Z,18.75
2023-04-09T18:29:01.399Z,19.02
2023-04-09T18:31:28.227Z,18.52
2023-04-09T18:33:55.113Z,19.02
2023-04-09T18:36:21.628Z,19.60
2023-04-09T18:38:48.271Z,19.33
2023-04-09T18:41:22.343Z,19.80
2023-04-09T18:43:48.975Z,18.75
2023-04-09T18:46:15.584Z,19.95
2023-04-09T18:48:43.449Z,19.10
2023-04-09T18:51:10.186Z,20.08
2023-04-09T18:53:37.070Z,19.42
2023-04-09T18:56:03.900Z,20.15
2023-04-09T18:58:38.085Z,18.90
2023-04-09T19:01:11.637Z,17.75
2023-04-09T19:03:39.398Z,18.45
2023-04-09T19:06:18.965Z,18.88
2023-04-09T19:08:46.260Z,18.65
2023-04-09T19:11:13.053Z,18.48
2023-04-09T19:13:39.776Z,19.95
2023-04-09T19:16:07.486Z,20.08
2023-04-09T19:18:34.362Z,19.52
2023-04-09T19:21:00.966Z,19.23
2023-04-09T19:23:27.527Z,19.80
2023-04-09T19:25:55.341Z,22.05
2023-04-09T19:28:24.985Z,20.08
2023-04-09T19:30:52.518Z,20.45
2023-04-09T19:33:22.570Z,22.70
2023-04-09T19:35:49.672Z,22.75
2023-04-09T19:38:17.363Z,23.90
2023-04-09T19:40:44.289Z,24.58
2023-04-09T19:43:11.176Z,25.40
2023-04-09T19:45:42.524Z,25.52
2023-04-09T19:48:09.402Z,26.77
2023-04-09T19:50:41.008Z,28.27
2023-04-09T19:53:07.583Z,28.08
2023-04-09T19:55:34.320Z,28.27
2023-04-09T19:58:01.559Z,27.38
2023-04-09T20:00:28.423Z,27.52
2023-04-09T20:02:55.737Z,25.75
2023-04-09T20:05:26.864Z,27.08
2023-04-09T20:08:02.183Z,26.52
2023-04-09T20:10:28.974Z,25.55
2023-04-09T20:12:55.618Z,26.50
2023-04-09T20:15:22.264Z,26.17
2023-04-09T20:17:49.064Z,25.88
2023-04-09T20:20:19.975Z,25.25
2023-04-09T20:22:56.255Z,24.65
2023-04-09T20:25:23.675Z,23.65
2023-04-09T20:27:52.422Z,22.23
2023-04-09T20:30:18.994Z,23.23
2023-04-09T20:32:45.490Z,23.40
2023-04-09T20:35:13.606Z,22.30
2023-04-09T20:37:40.325Z,22.13
2023-04-09T20:40:25.191Z,21.30
2023-04-09T20:43:00.501Z,22.23
2023-04-09T20:45:33.187Z,20.45
2023-04-09T20:47:59.850Z,20.92
2023-04-09T20:50:26.640Z,20.10
2023-04-09T20:52:53.411Z,18.70
2023-04-09T20:55:20.093Z,18.42
2023-04-09T20:57:46.855Z,18.08
2023-04-09T21:00:19.461Z,18.42
2023-04-09T21:02:46.903Z,17.33
2023-04-09T21:05:22.476Z,18.02
2023-04-09T21:07:50.808Z,18.55
2023-04-09T21:10:17.433Z,18.73
2023-04-09T21:12:43.974Z,19.33
2023-04-09T21:15:11.248Z,19.08
2023-04-09T21:17:38.046Z,19.00
2023-04-09T21:20:04.900Z,19.73
2023-04-09T21:22:32.035Z,18.00
2023-04-09T21:24:58.509Z,16.52
2023-04-09T21:27:25.397Z,16.13
2023-04-09T21:29:52.178Z,17.17
2023-04-09T21:32:18.842Z,15.02
2023-04-09T21:34:45.472Z,14.10
2023-04-09T21:37:15.524Z,14.43
2023-04-09T21:39:45.181Z,15.10
2023-04-09T21:42:12.100Z,16.15
2023-04-09T21:44:38.998Z,15.52
2023-04-09T21:47:09.078Z,15.23
2023-04-09T21:49:40.599Z,15.38
2023-04-09T21:52:14.460Z,16.10
2023-04-09T21:54:42.123Z,15.00
2023-04-09T21:57:08.705Z,14.80
2023-04-09T21:59:38.167Z,15.63
2023-04-09T22:02:04.965Z,14.32
2023-04-09T22:04:31.798Z,14.68
2023-04-09T22:06:58.358Z,15.00
2023-04-09T22:09:26.379Z,14.48
2023-04-09T22:11:57.502Z,13.52
2023-04-09T22:14:26.641Z,13.88
2023-04-09T22:16:54.994Z,14.23
2023-04-09T22:19:21.779Z,14.98
2023-04-09T22:21:50.667Z,14.93
2023-04-09T22:24:21.405Z,13.68
2023-04-09T22:26:51.601Z,13.25
2023-04-09T22:29:18.115Z,14.50
2023-04-09T22:31:44.806Z,14.30
2023-04-09T22:34:20.920Z,13.20
2023-04-09T22:36:48.692Z,13.90
2023-04-09T22:39:15.367Z,13.98
2023-04-09T22:41:41.935Z,14.55
2023-04-09T22:44:09.540Z,13.23
2023-04-09T22:46:36.677Z,13.25
2023-04-09T22:49:05.288Z,13.57
2023-04-09T22:51:34.779Z,14.05
2023-04-09T22:54:02.250Z,13.15
2023-04-09T22:56:30.173Z,13.15
2023-04-09T22:58:56.721Z,14.15
2023-04-09T23:01:23.510Z,12.23
2023-04-09T23:03:50.476Z,11.73
2023-04-09T23:06:17.281Z,11.73
2023-04-09T23:08:44.272Z,11.57
2023-04-09T23:11:10.925Z,12.32
2023-04-09T23:13:37.904Z,12.07
2023-04-09T23:16:05.919Z,11.60
2023-04-09T23:18:32.920Z,11.63
2023-04-09T23:21:02.764Z,12.20
2023-04-09T23:23:29.486Z,12.00
2023-04-09T23:25:56.531Z,11.48
2023-04-09T23:28:23.090Z,11.98
2023-04-09T23:30:49.718Z,12.98
2023-04-09T23:33:16.297Z,12.85
2023-04-09T23:35:42.900Z,12.05
2023-04-09T23:38:09.408Z,12.00
2023-04-09T23:40:36.125Z,13.05
2023-04-09T23:43:02.772Z,13.10
2023-04-09T23:45:29.387Z,11.90
2023-04-09T23:47:56.570Z,12.32
2023-04-09T23:50:23.238Z,12.40
2023-04-09T23:52:50.192Z,12.18
2023-04-09T23:55:16.804Z,12.55
2023-04-09T23:57:43.672Z,12.13
